createdAt,value
2018-11-27T00:00:57.310Z,2.30
2018-11-27T00:03:31.701Z,2.20
2018-11-27T00:06:01.034Z,2.33
2018-11-27T00:08:30.327Z,2.40
2018-11-27T00:10:59.744Z,2.10
2018-11-27T00:13:29.055Z,1.97
2018-11-27T00:15:59.287Z,2.20
2018-11-27T00:18:28.699Z,2.10
2018-11-27T00:20:58.214Z,1.73
2018-11-27T00:23:28.099Z,2.73
2018-11-27T00:25:58.421Z,2.30
2018-11-27T00:28:27.859Z,2.63
2018-11-27T00:30:57.246Z,2.40
2018-11-27T00:33:26.666Z,2.50
2018-11-27T00:35:56.138Z,1.87
2018-11-27T00:38:25.422Z,2.13
2018-11-27T00:40:54.711Z,2.30
2018-11-27T00:43:23.999Z,2.70
2018-11-27T00:45:53.343Z,2.30
2018-11-27T00:48:22.620Z,3.17
2018-11-27T00:50:52.024Z,2.50
2018-11-27T00:53:21.263Z,3.80
2018-11-27T00:55:50.552Z,2.23
2018-11-27T00:58:19.883Z,2.50
2018-11-27T01:00:49.307Z,2.40
2018-11-27T01:03:18.558Z,2.40
2018-11-27T01:05:47.903Z,3.00
2018-11-27T01:08:17.226Z,3.20
2018-11-27T01:10:46.574Z,2.77
2018-11-27T01:13:15.987Z,2.70
2018-11-27T01:15:45.311Z,2.90
2018-11-27T01:18:14.649Z,2.80
2018-11-27T01:20:43.987Z,3.00
2018-11-27T01:23:13.359Z,2.17
2018-11-27T01:25:42.698Z,2.67
2018-11-27T01:28:12.003Z,3.13
2018-11-27T01:30:41.399Z,2.47
2018-11-27T01:33:10.714Z,3.33
2018-11-27T01:35:40.027Z,2.63
2018-11-27T01:38:09.332Z,2.20
2018-11-27T01:40:38.669Z,3.40
2018-11-27T01:43:08.000Z,2.70
2018-11-27T01:45:37.374Z,2.50
2018-11-27T01:48:06.880Z,2.80
2018-11-27T01:50:36.140Z,3.17
2018-11-27T01:53:05.916Z,2.60
2018-11-27T01:55:35.200Z,3.07
2018-11-27T01:58:04.542Z,3.80
2018-11-27T02:00:33.899Z,2.53
2018-11-27T02:03:03.239Z,2.90
2018-11-27T02:05:32.550Z,3.20
2018-11-27T02:08:01.904Z,2.83
2018-11-27T02:10:31.206Z,3.17
2018-11-27T02:13:01.409Z,3.20
2018-11-27T02:15:30.477Z,3.07
2018-11-27T02:17:59.775Z,2.50
2018-11-27T02:20:29.059Z,3.00
2018-11-27T02:22:58.445Z,2.60
2018-11-27T02:25:29.067Z,2.60
2018-11-27T02:27:58.439Z,2.43
2018-11-27T02:30:28.674Z,2.80
2018-11-27T02:32:57.976Z,3.73
2018-11-27T02:35:27.676Z,2.53
2018-11-27T02:38:00.015Z,2.77
2018-11-27T02:40:29.324Z,3.23
2018-11-27T02:42:58.632Z,2.80
2018-11-27T02:45:27.927Z,2.43
2018-11-27T02:47:57.304Z,3.30
2018-11-27T02:50:27.119Z,3.57
2018-11-27T02:52:56.560Z,2.03
2018-11-27T02:55:27.103Z,2.80
2018-11-27T02:57:56.499Z,2.10
2018-11-27T03:00:28.112Z,2.80
2018-11-27T03:02:57.554Z,2.77
2018-11-27T03:05:28.178Z,3.07
2018-11-27T03:07:57.533Z,3.40
2018-11-27T03:10:26.883Z,2.53
2018-11-27T03:12:56.228Z,2.90
2018-11-27T03:15:25.643Z,2.37
2018-11-27T03:17:54.944Z,2.63
2018-11-27T03:20:24.316Z,2.30
2018-11-27T03:22:53.667Z,2.77
2018-11-27T03:25:23.766Z,2.47
2018-11-27T03:27:54.207Z,2.67
2018-11-27T03:30:26.147Z,2.40
2018-11-27T03:32:55.473Z,2.03
2018-11-27T03:35:25.775Z,2.27
2018-11-27T03:37:55.273Z,3.80
2018-11-27T03:40:27.026Z,1.83
2018-11-27T03:42:56.469Z,2.30
2018-11-27T03:45:26.275Z,2.70
2018-11-27T03:47:55.672Z,3.10
2018-11-27T03:50:28.204Z,3.13
2018-11-27T03:52:57.521Z,3.47
2018-11-27T03:55:27.944Z,2.70
2018-11-27T03:57:57.292Z,2.60
2018-11-27T04:00:29.904Z,2.53
2018-11-27T04:04:14.202Z,2.47
2018-11-27T04:06:44.097Z,2.03
2018-11-27T04:09:13.465Z,2.07
2018-11-27T04:11:43.000Z,2.17
2018-11-27T04:14:12.857Z,2.70
2018-11-27T04:16:42.216Z,2.37
2018-11-27T04:19:11.510Z,2.27
2018-11-27T04:21:40.844Z,2.50
2018-11-27T04:24:10.263Z,2.10
2018-11-27T04:26:39.567Z,2.43
2018-11-27T04:29:08.905Z,2.40
2018-11-27T04:31:38.329Z,1.80
2018-11-27T04:34:07.650Z,2.33
2018-11-27T04:36:37.088Z,1.73
2018-11-27T04:39:09.406Z,2.60
2018-11-27T04:41:38.809Z,1.80
2018-11-27T04:44:11.075Z,2.30
2018-11-27T04:46:40.451Z,1.63
2018-11-27T04:49:10.576Z,2.60
2018-11-27T04:51:39.937Z,1.93
2018-11-27T04:54:09.284Z,1.60
2018-11-27T04:56:38.635Z,2.10
2018-11-27T04:59:07.960Z,2.40
2018-11-27T05:01:37.327Z,2.80
2018-11-27T05:04:06.695Z,2.23
2018-11-27T05:06:36.191Z,2.63
2018-11-27T05:09:08.825Z,2.80
2018-11-27T05:11:39.502Z,2.67
2018-11-27T05:14:08.900Z,3.33
2018-11-27T05:16:38.289Z,3.27
2018-11-27T05:19:07.643Z,3.70
2018-11-27T05:21:36.995Z,3.83
2018-11-27T05:24:07.124Z,3.87
2018-11-27T05:26:36.689Z,3.60
2018-11-27T05:29:06.693Z,4.33
2018-11-27T05:31:36.076Z,3.57
2018-11-27T05:34:05.848Z,4.07
2018-11-27T05:36:35.412Z,4.17
2018-11-27T05:39:07.151Z,5.43
2018-11-27T05:41:36.665Z,4.60
2018-11-27T05:44:07.627Z,4.53
2018-11-27T05:46:37.000Z,4.40
2018-11-27T05:49:06.527Z,4.23
2018-11-27T05:51:36.030Z,4.07
2018-11-27T05:54:05.509Z,3.97
2018-11-27T05:56:34.955Z,4.43
2018-11-27T05:59:04.469Z,4.77
2018-11-27T06:01:33.985Z,4.17
2018-11-27T06:04:03.441Z,3.80
2018-11-27T06:06:32.894Z,4.73
2018-11-27T06:09:02.391Z,4.57
2018-11-27T06:11:31.735Z,5.07
2018-11-27T06:14:01.146Z,4.47
2018-11-27T06:16:30.479Z,4.40
2018-11-27T06:18:59.843Z,3.47
2018-11-27T06:21:29.305Z,4.10
2018-11-27T06:23:58.655Z,4.50
2018-11-27T06:26:28.056Z,3.63
2018-11-27T06:28:57.400Z,4.63
2018-11-27T06:31:26.720Z,4.03
2018-11-27T06:33:56.063Z,4.67
2018-11-27T06:36:25.379Z,5.23
2018-11-27T06:38:54.925Z,4.73
2018-11-27T06:41:24.243Z,4.70
2018-11-27T06:43:53.581Z,4.87
2018-11-27T06:46:23.110Z,3.47
2018-11-27T06:48:53.876Z,4.57
2018-11-27T06:51:23.307Z,3.27
2018-11-27T06:53:52.645Z,3.43
2018-11-27T06:56:22.053Z,2.93
2018-11-27T06:58:51.561Z,3.30
2018-11-27T07:01:20.905Z,3.20
2018-11-27T07:03:50.308Z,2.90
2018-11-27T07:06:19.607Z,3.00
2018-11-27T07:08:49.004Z,2.87
2018-11-27T07:11:18.355Z,3.20
2018-11-27T07:13:47.688Z,3.30
2018-11-27T07:16:17.125Z,3.60
2018-11-27T07:18:46.597Z,3.07
2018-11-27T07:21:16.029Z,3.30
2018-11-27T07:23:45.416Z,3.77
2018-11-27T07:26:14.804Z,4.43
2018-11-27T07:28:44.411Z,3.43
2018-11-27T07:31:13.760Z,2.90
2018-11-27T07:33:43.218Z,3.53
2018-11-27T07:36:12.595Z,3.70
2018-11-27T07:38:41.952Z,3.80
2018-11-27T07:41:11.325Z,3.57
2018-11-27T07:43:40.720Z,3.67
2018-11-27T07:46:12.300Z,3.87
2018-11-27T07:48:41.608Z,4.17
2018-11-27T07:51:26.885Z,4.67
2018-11-27T07:53:56.199Z,4.03
2018-11-27T07:56:25.472Z,4.67
2018-11-27T07:58:54.781Z,4.43
2018-11-27T08:01:29.865Z,4.17
2018-11-27T08:03:59.170Z,7.97
2018-11-27T08:06:28.611Z,5.73
2018-11-27T08:09:09.181Z,6.00
2018-11-27T08:11:38.492Z,6.53
2018-11-27T08:14:08.441Z,5.83
2018-11-27T08:16:37.846Z,5.00
2018-11-27T08:19:07.500Z,6.10
2018-11-27T08:21:36.828Z,4.80
2018-11-27T08:24:06.632Z,4.67
2018-11-27T08:26:36.247Z,4.10
2018-11-27T08:29:05.902Z,5.30
2018-11-27T08:31:35.219Z,5.50
2018-11-27T08:34:04.718Z,6.17
2018-11-27T08:36:33.972Z,5.93
2018-11-27T08:39:03.479Z,5.63
2018-11-27T08:41:40.522Z,6.67
2018-11-27T08:44:02.125Z,6.20
2018-11-27T08:46:31.605Z,5.23
2018-11-27T08:49:00.908Z,4.27
2018-11-27T08:51:30.199Z,5.17
2018-11-27T08:53:59.447Z,5.20
2018-11-27T08:56:28.702Z,3.60
2018-11-27T08:58:58.096Z,6.33
2018-11-27T09:01:27.403Z,3.93
2018-11-27T09:03:56.658Z,4.40
2018-11-27T09:06:26.048Z,3.43
2018-11-27T09:08:56.032Z,3.73
2018-11-27T09:11:25.434Z,3.53
2018-11-27T09:13:54.890Z,3.67
2018-11-27T09:16:24.314Z,2.57
2018-11-27T09:18:53.620Z,3.33
2018-11-27T09:21:22.942Z,3.23
2018-11-27T09:23:52.246Z,3.43
2018-11-27T09:26:21.596Z,3.30
2018-11-27T09:28:58.382Z,3.03
2018-11-27T09:31:43.670Z,3.10
2018-11-27T09:34:12.949Z,2.93
2018-11-27T09:36:42.239Z,2.93
2018-11-27T09:39:11.532Z,3.67
2018-11-27T09:41:40.835Z,3.77
2018-11-27T09:44:10.129Z,3.50
2018-11-27T09:46:39.446Z,3.23
2018-11-27T09:49:15.275Z,3.13
2018-11-27T09:51:44.554Z,3.30
2018-11-27T09:54:13.835Z,3.10
2018-11-27T09:56:43.196Z,3.40
2018-11-27T09:59:12.482Z,3.27
2018-11-27T10:01:41.808Z,3.30
2018-11-27T10:04:11.114Z,3.33
2018-11-27T10:06:40.512Z,2.70
2018-11-27T10:09:10.221Z,3.13
2018-11-27T10:11:39.513Z,2.73
2018-11-27T10:14:08.849Z,2.80
2018-11-27T10:16:38.267Z,3.00
2018-11-27T10:19:07.623Z,3.27
2018-11-27T10:21:36.946Z,2.40
2018-11-27T10:24:06.484Z,2.92
2018-11-27T10:26:35.909Z,3.10
2018-11-27T10:29:05.502Z,3.77
2018-11-27T10:31:34.913Z,2.80
2018-11-27T10:34:04.247Z,3.00
2018-11-27T10:36:33.558Z,2.90
2018-11-27T10:39:02.854Z,2.83
2018-11-27T10:41:32.117Z,2.90
2018-11-27T10:44:01.546Z,3.47
2018-11-27T10:46:31.421Z,3.70
2018-11-27T10:49:00.991Z,2.50
2018-11-27T10:51:31.324Z,2.93
2018-11-27T10:54:00.732Z,2.70
2018-11-27T10:56:30.179Z,2.93
2018-11-27T10:58:59.856Z,2.63
2018-11-27T11:01:34.132Z,2.90
2018-11-27T11:04:03.449Z,3.10
2018-11-27T11:06:33.648Z,3.57
2018-11-27T11:09:03.701Z,2.30
2018-11-27T11:11:33.995Z,3.30
2018-11-27T11:14:03.340Z,3.33
2018-11-27T11:16:32.730Z,2.97
2018-11-27T11:19:02.131Z,3.30
2018-11-27T11:21:32.436Z,2.93
2018-11-27T11:24:02.743Z,2.90
2018-11-27T11:26:32.055Z,2.60
2018-11-27T11:29:01.450Z,2.80
2018-11-27T11:31:30.716Z,3.33
2018-11-27T11:34:00.039Z,2.40
2018-11-27T11:36:29.371Z,2.97
2018-11-27T11:38:58.739Z,3.45
2018-11-27T11:41:31.285Z,3.07
2018-11-27T11:43:57.497Z,3.00
2018-11-27T11:46:27.107Z,3.10
2018-11-27T11:49:01.765Z,4.60
2018-11-27T11:51:25.825Z,4.17
2018-11-27T11:53:55.132Z,3.97
2018-11-27T11:56:24.407Z,3.10
2018-11-27T11:58:53.684Z,2.97
2018-11-27T12:01:22.983Z,3.50
2018-11-27T12:03:53.220Z,3.70
2018-11-27T12:06:22.546Z,2.93
2018-11-27T12:08:51.851Z,2.73
2018-11-27T12:11:21.190Z,3.00
2018-11-27T12:13:50.562Z,2.53
2018-11-27T12:16:19.879Z,2.50
2018-11-27T12:18:49.187Z,2.43
2018-11-27T12:21:18.499Z,2.00
2018-11-27T12:23:47.872Z,2.67
2018-11-27T12:26:17.241Z,2.63
2018-11-27T12:28:46.537Z,2.20
2018-11-27T12:31:15.836Z,2.27
2018-11-27T12:33:45.182Z,2.40
2018-11-27T12:36:21.144Z,2.50
2018-11-27T12:38:50.487Z,2.77
2018-11-27T12:41:19.810Z,3.47
2018-11-27T12:43:49.135Z,3.93
2018-11-27T12:46:18.539Z,3.50
2018-11-27T12:48:47.839Z,2.60
2018-11-27T12:51:17.519Z,2.53
2018-11-27T12:53:46.524Z,2.67
2018-11-27T12:56:15.864Z,3.07
2018-11-27T12:58:45.123Z,2.77
2018-11-27T13:01:14.370Z,5.33
2018-11-27T13:03:43.675Z,3.40
2018-11-27T13:06:12.964Z,2.73
2018-11-27T13:08:42.218Z,3.17
2018-11-27T13:11:11.707Z,3.20
2018-11-27T13:13:41.796Z,2.17
2018-11-27T13:16:10.381Z,2.57
2018-11-27T13:18:39.599Z,3.27
2018-11-27T13:21:09.290Z,3.40
2018-11-27T13:23:38.555Z,2.50
2018-11-27T13:26:07.994Z,3.20
2018-11-27T13:28:37.429Z,2.93
2018-11-27T13:31:10.381Z,3.17
2018-11-27T13:34:02.048Z,2.97
2018-11-27T13:36:31.382Z,3.83
2018-11-27T13:39:11.561Z,2.80
2018-11-27T13:41:41.019Z,3.07
2018-11-27T13:44:10.387Z,2.90
2018-11-27T13:46:40.364Z,3.50
2018-11-27T13:49:09.718Z,2.73
2018-11-27T13:51:39.155Z,3.20
2018-11-27T13:54:09.082Z,2.73
2018-11-27T13:56:38.629Z,2.70
2018-11-27T13:59:08.002Z,2.30
2018-11-27T14:01:37.805Z,2.03
2018-11-27T14:04:09.342Z,3.70
2018-11-27T14:06:38.862Z,2.07
2018-11-27T14:09:10.665Z,3.33
2018-11-27T14:11:40.693Z,3.07
2018-11-27T14:14:10.180Z,2.20
2018-11-27T14:16:39.890Z,1.97
2018-11-27T14:19:09.311Z,2.17
2018-11-27T14:21:38.647Z,3.67
2018-11-27T14:24:07.942Z,3.17
2018-11-27T14:26:37.251Z,2.87
2018-11-27T14:29:07.023Z,2.83
2018-11-27T14:31:36.423Z,3.50
2018-11-27T14:34:06.089Z,2.90
2018-11-27T14:36:35.343Z,3.77
2018-11-27T14:39:07.439Z,3.70
2018-11-27T14:41:37.600Z,2.90
2018-11-27T14:44:07.283Z,3.30
2018-11-27T14:46:36.551Z,3.07
2018-11-27T14:49:06.051Z,3.63
2018-11-27T14:51:35.334Z,4.27
2018-11-27T14:54:05.085Z,3.63
2018-11-27T14:56:34.395Z,4.10
2018-11-27T14:59:03.660Z,4.87
2018-11-27T15:01:32.947Z,4.03
2018-11-27T15:04:02.244Z,4.23
2018-11-27T15:06:31.526Z,2.90
2018-11-27T15:09:00.776Z,4.23
2018-11-27T15:11:30.042Z,3.37
2018-11-27T15:13:59.327Z,3.57
2018-11-27T15:16:28.627Z,3.27
2018-11-27T15:18:57.898Z,3.00
2018-11-27T15:21:27.160Z,3.67
2018-11-27T15:23:56.458Z,4.17
2018-11-27T15:26:25.727Z,4.30
2018-11-27T15:28:55.055Z,4.37
2018-11-27T15:31:24.335Z,3.90
2018-11-27T15:33:53.879Z,4.87
2018-11-27T15:36:23.131Z,3.23
2018-11-27T15:38:52.395Z,3.50
2018-11-27T15:41:21.798Z,3.87
2018-11-27T15:43:51.059Z,4.07
2018-11-27T15:46:20.343Z,3.40
2018-11-27T15:48:49.613Z,5.93
2018-11-27T15:51:18.863Z,3.70
2018-11-27T15:53:48.157Z,3.53
2018-11-27T15:56:17.448Z,3.80
2018-11-27T15:58:46.673Z,5.10
2018-11-27T16:01:15.933Z,3.33
2018-11-27T16:03:45.211Z,4.60
2018-11-27T16:06:14.534Z,4.17
2018-11-27T16:08:43.812Z,3.37
2018-11-27T16:11:13.318Z,3.77
2018-11-27T16:13:42.583Z,3.70
2018-11-27T16:16:11.924Z,3.73
2018-11-27T16:18:58.286Z,4.47
2018-11-27T16:21:27.497Z,3.60
2018-11-27T16:23:56.683Z,3.33
2018-11-27T16:26:25.979Z,3.10
2018-11-27T16:28:55.212Z,4.87
2018-11-27T16:31:25.030Z,3.50
2018-11-27T16:33:54.315Z,4.50
2018-11-27T16:36:23.624Z,4.50
2018-11-27T16:38:52.886Z,3.80
2018-11-27T16:41:22.170Z,4.03
2018-11-27T16:43:52.439Z,3.57
2018-11-27T16:46:22.488Z,3.40
2018-11-27T16:48:51.794Z,3.70
2018-11-27T16:51:21.113Z,2.80
2018-11-27T16:53:50.391Z,3.80
2018-11-27T16:56:19.691Z,3.70
2018-11-27T16:58:48.959Z,4.23
2018-11-27T17:01:18.302Z,4.43
2018-11-27T17:03:47.557Z,3.90
2018-11-27T17:06:16.915Z,3.97
2018-11-27T17:08:46.187Z,4.37
2018-11-27T17:11:15.480Z,5.93
2018-11-27T17:13:44.803Z,4.90
2018-11-27T17:16:14.080Z,4.27
2018-11-27T17:18:43.348Z,4.50
2018-11-27T17:21:12.659Z,4.77
2018-11-27T17:23:41.912Z,5.30
2018-11-27T17:26:11.266Z,4.90
2018-11-27T17:28:40.626Z,4.20
2018-11-27T17:31:15.756Z,5.10
2018-11-27T17:36:42.028Z,5.67
2018-11-27T17:39:12.204Z,6.00
2018-11-27T17:41:41.683Z,5.60
2018-11-27T17:44:13.896Z,5.17
2018-11-27T17:46:43.225Z,7.00
2018-11-27T17:49:12.587Z,4.93
2018-11-27T17:51:41.877Z,5.07
2018-11-27T17:54:11.200Z,5.33
2018-11-27T17:56:40.512Z,5.57
2018-11-27T17:59:09.813Z,5.83
2018-11-27T18:01:39.135Z,5.77
2018-11-27T18:04:08.404Z,4.90
2018-11-27T18:06:37.663Z,4.17
2018-11-27T18:09:09.286Z,5.10
2018-11-27T18:11:38.637Z,3.60
2018-11-27T18:14:07.906Z,4.57
2018-11-27T18:16:37.218Z,3.90
2018-11-27T18:19:07.058Z,4.60
2018-11-27T18:21:36.349Z,4.40
2018-11-27T18:24:05.919Z,4.17
2018-11-27T18:26:35.166Z,4.40
2018-11-27T18:29:04.475Z,3.40
2018-11-27T18:31:33.785Z,3.70
2018-11-27T18:34:03.050Z,3.07
2018-11-27T18:36:32.397Z,4.13
2018-11-27T18:39:01.715Z,3.30
2018-11-27T18:41:31.740Z,3.30
2018-11-27T18:44:01.039Z,3.80
2018-11-27T18:46:30.314Z,3.47
2018-11-27T18:48:59.583Z,4.87
2018-11-27T18:51:28.945Z,3.60
2018-11-27T18:53:58.227Z,3.70
2018-11-27T18:56:27.482Z,2.70
2018-11-27T18:58:56.799Z,3.47
2018-11-27T19:01:26.071Z,3.50
2018-11-27T19:03:56.434Z,5.00
2018-11-27T19:06:26.068Z,6.50
2018-11-27T19:08:56.018Z,4.53
2018-11-27T19:11:25.354Z,4.20
2018-11-27T19:13:54.723Z,3.83
2018-11-27T19:16:25.002Z,4.67
2018-11-27T19:18:56.130Z,4.47
2018-11-27T19:21:25.698Z,4.43
2018-11-27T19:23:55.105Z,6.30
2018-11-27T19:26:24.811Z,9.67
2018-11-27T19:28:54.144Z,19.50
2018-11-27T19:31:23.376Z,15.23
2018-11-27T19:33:52.669Z,10.10
2018-11-27T19:36:22.008Z,6.83
2018-11-27T19:38:51.269Z,4.60
2018-11-27T19:41:20.599Z,5.07
2018-11-27T19:43:51.081Z,7.67
2018-11-27T19:46:20.450Z,7.13
2018-11-27T19:48:53.425Z,5.33
2018-11-27T19:51:19.194Z,4.67
2018-11-27T19:53:48.498Z,4.90
2018-11-27T19:59:00.191Z,6.40
2018-11-27T20:01:29.717Z,6.60
2018-11-27T20:03:59.114Z,6.70
2018-11-27T20:06:28.539Z,7.57
2018-11-27T20:08:58.044Z,5.77
2018-11-27T20:11:27.577Z,6.80
2018-11-27T20:13:57.483Z,3.93
2018-11-27T20:16:26.918Z,4.20
2018-11-27T20:19:03.018Z,5.27
2018-11-27T20:21:32.340Z,7.30
2018-11-27T20:24:01.648Z,7.10
2018-11-27T20:26:31.567Z,6.70
2018-11-27T20:29:01.829Z,6.10
2018-11-27T20:31:31.162Z,5.40
2018-11-27T20:34:00.467Z,5.40
2018-11-27T20:36:30.615Z,5.13
2018-11-27T20:39:00.717Z,4.57
2018-11-27T20:41:29.489Z,3.60
2018-11-27T20:43:58.916Z,3.70
2018-11-27T20:46:28.338Z,4.13
2018-11-27T20:49:13.294Z,4.03
2018-11-27T20:51:42.744Z,4.13
2018-11-27T20:54:15.278Z,3.10
2018-11-27T20:56:44.876Z,3.40
2018-11-27T20:59:14.272Z,4.93
2018-11-27T21:01:43.687Z,4.67
2018-11-27T21:04:12.975Z,5.50
2018-11-27T21:06:42.386Z,7.30
2018-11-27T21:09:13.560Z,4.80
2018-11-27T21:11:42.980Z,9.73
2018-11-27T21:14:12.277Z,9.93
2018-11-27T21:16:42.001Z,4.83
2018-11-27T21:19:11.416Z,5.53
2018-11-27T21:21:41.512Z,5.30
2018-11-27T21:24:11.915Z,3.90
2018-11-27T21:26:41.254Z,6.80
2018-11-27T21:29:10.663Z,7.03
2018-11-27T21:31:40.039Z,4.90
2018-11-27T21:34:09.402Z,4.23
2018-11-27T21:39:33.008Z,3.67
2018-11-27T21:42:02.506Z,3.60
2018-11-27T21:44:32.092Z,4.33
2018-11-27T21:47:01.547Z,3.80
2018-11-27T21:49:31.251Z,3.10
2018-11-27T21:52:00.879Z,3.00
2018-11-27T21:54:30.215Z,3.43
2018-11-27T21:57:01.789Z,4.10
2018-11-27T21:59:31.676Z,3.97
2018-11-27T22:02:01.742Z,3.50
2018-11-27T22:04:33.155Z,4.00
2018-11-27T22:07:02.797Z,4.07
2018-11-27T22:09:33.401Z,3.00
2018-11-27T22:12:03.811Z,3.87
2018-11-27T22:14:34.152Z,4.07
2018-11-27T22:17:03.765Z,2.80
2018-11-27T22:19:33.535Z,3.10
2018-11-27T22:22:03.316Z,2.87
2018-11-27T22:24:36.167Z,2.70
2018-11-27T22:27:10.892Z,3.10
2018-11-27T22:29:40.282Z,3.20
2018-11-27T22:32:09.636Z,3.60
2018-11-27T22:34:44.249Z,3.80
2018-11-27T23:04:13.083Z,3.40
2018-11-27T23:06:42.422Z,3.20
2018-11-27T23:09:11.779Z,3.10
2018-11-27T23:11:41.160Z,4.20
2018-11-27T23:14:10.468Z,3.80
2018-11-27T23:16:39.780Z,3.30
2018-11-27T23:19:09.095Z,3.67
2018-11-27T23:21:41.697Z,3.10
2018-11-27T23:24:11.143Z,3.00
2018-11-27T23:26:42.332Z,3.20
2018-11-27T23:29:34.823Z,3.93
2018-11-27T23:52:12.245Z,3.33
2018-11-27T23:54:45.856Z,3.90
